sensor_id;sensor_type;location;lat;lon;timestamp;pressure;altitude;pressure_sealevel;temperature;humidity
67457;BME280;54319;52.038;4.640;2023-04-22T00:00:03;100966.03;;;7.25;100.00
67457;BME280;54319;52.038;4.640;2023-04-22T00:02:30;100956.91;;;7.18;100.00
67457;BME280;54319;52.038;4.640;2023-04-22T00:04:59;100947.78;;;7.04;100.00
67457;BME280;54319;52.038;4.640;2023-04-22T00:07:26;100963.47;;;7.08;100.00
67457;BME280;54319;52.038;4.640;2023-04-22T00:09:53;100960.31;;;7.05;100.00
67457;BME280;54319;52.038;4.640;2023-04-22T00:12:19;100967.59;;;7.04;100.00
67457;BME280;54319;52.038;4.640;2023-04-22T00:14:47;100961.50;;;7.02;100.00
67457;BME280;54319;52.038;4.640;2023-04-22T00:17:14;100964.75;;;6.98;100.00
67457;BME280;54319;52.038;4.640;2023-04-22T00:19:41;100968.06;;;6.93;100.00
67457;BME280;54319;52.038;4.640;2023-04-22T00:22:09;100968.72;;;6.95;100.00
67457;BME280;54319;52.038;4.640;2023-04-22T00:24:36;100975.81;;;6.96;100.00
67457;BME280;54319;52.038;4.640;2023-04-22T00:27:03;100900.69;;;6.51;100.00
67457;BME280;54319;52.038;4.640;2023-04-22T00:29:29;100969.09;;;6.92;100.00
67457;BME280;54319;52.038;4.640;2023-04-22T00:31:56;100967.78;;;6.88;100.00
67457;BME280;54319;52.038;4.640;2023-04-22T00:34:22;100967.66;;;6.81;100.00
67457;BME280;54319;52.038;4.640;2023-04-22T00:36:49;100963.63;;;6.77;100.00
67457;BME280;54319;52.038;4.640;2023-04-22T00:39:17;100966.34;;;6.77;100.00
67457;BME280;54319;52.038;4.640;2023-04-22T00:41:44;100960.44;;;6.73;100.00
67457;BME280;54319;52.038;4.640;2023-04-22T00:44:11;100961.00;;;6.69;100.00
67457;BME280;54319;52.038;4.640;2023-04-22T00:46:38;100968.84;;;6.63;100.00
67457;BME280;54319;52.038;4.640;2023-04-22T00:49:06;100959.06;;;6.54;100.00
67457;BME280;54319;52.038;4.640;2023-04-22T00:51:33;100953.94;;;6.44;100.00
67457;BME280;54319;52.038;4.640;2023-04-22T00:53:59;100972.53;;;6.47;100.00
67457;BME280;54319;52.038;4.640;2023-04-22T00:56:30;100971.88;;;6.45;100.00
67457;BME280;54319;52.038;4.640;2023-04-22T00:58:58;100966.50;;;6.37;100.00
67457;BME280;54319;52.038;4.640;2023-04-22T01:01:25;100977.34;;;6.37;100.00
67457;BME280;54319;52.038;4.640;2023-04-22T01:03:52;101000.16;;;6.43;100.00
67457;BME280;54319;52.038;4.640;2023-04-22T01:06:21;100911.56;;;5.97;100.00
67457;BME280;54319;52.038;4.640;2023-04-22T01:08:50;100960.13;;;6.30;100.00
67457;BME280;54319;52.038;4.640;2023-04-22T01:11:17;100974.59;;;6.45;100.00
67457;BME280;54319;52.038;4.640;2023-04-22T01:13:46;100981.84;;;6.45;100.00
67457;BME280;54319;52.038;4.640;2023-04-22T01:16:17;100977.63;;;6.42;100.00
67457;BME280;54319;52.038;4.640;2023-04-22T01:18:44;100976.31;;;6.38;100.00
67457;BME280;54319;52.038;4.640;2023-04-22T01:21:10;100970.22;;;6.36;100.00
67457;BME280;54319;52.038;4.640;2023-04-22T01:23:39;100966.88;;;6.34;100.00
67457;BME280;54319;52.038;4.640;2023-04-22T01:26:06;100964.72;;;6.29;100.00
67457;BME280;54319;52.038;4.640;2023-04-22T01:28:33;100972.66;;;6.31;100.00
67457;BME280;54319;52.038;4.640;2023-04-22T01:30:59;100977.25;;;6.30;100.00
67457;BME280;54319;52.038;4.640;2023-04-22T01:33:26;100970.97;;;6.30;100.00
67457;BME280;54319;52.038;4.640;2023-04-22T01:35:54;100970.13;;;6.29;100.00
67457;BME280;54319;52.038;4.640;2023-04-22T01:38:20;100970.13;;;6.29;100.00
67457;BME280;54319;52.038;4.640;2023-04-22T01:40:50;100979.28;;;6.28;100.00
67457;BME280;54319;52.038;4.640;2023-04-22T01:43:16;100970.66;;;6.25;100.00
67457;BME280;54319;52.038;4.640;2023-04-22T01:45:43;100974.56;;;6.22;100.00
67457;BME280;54319;52.038;4.640;2023-04-22T01:48:10;100967.00;;;6.17;100.00
67457;BME280;54319;52.038;4.640;2023-04-22T01:50:36;100962.31;;;6.11;100.00
67457;BME280;54319;52.038;4.640;2023-04-22T01:53:06;100964.69;;;6.06;100.00
67457;BME280;54319;52.038;4.640;2023-04-22T01:55:37;100966.50;;;6.14;100.00
67457;BME280;54319;52.038;4.640;2023-04-22T01:58:07;100973.13;;;6.11;100.00
67457;BME280;54319;52.038;4.640;2023-04-22T02:00:34;100968.91;;;6.08;100.00
67457;BME280;54319;52.038;4.640;2023-04-22T02:03:01;100967.06;;;6.09;100.00
67457;BME280;54319;52.038;4.640;2023-04-22T02:05:28;100971.97;;;6.05;100.00
67457;BME280;54319;52.038;4.640;2023-04-22T02:07:54;100957.81;;;5.95;100.00
67457;BME280;54319;52.038;4.640;2023-04-22T02:10:21;100976.56;;;5.97;100.00
67457;BME280;54319;52.038;4.640;2023-04-22T02:12:48;100958.63;;;5.96;100.00
67457;BME280;54319;52.038;4.640;2023-04-22T02:15:16;100959.13;;;5.99;100.00
67457;BME280;54319;52.038;4.640;2023-04-22T02:17:42;100978.78;;;6.01;100.00
67457;BME280;54319;52.038;4.640;2023-04-22T02:20:10;100983.34;;;6.01;100.00
67457;BME280;54319;52.038;4.640;2023-04-22T02:22:37;100981.81;;;5.98;100.00
67457;BME280;54319;52.038;4.640;2023-04-22T02:25:07;100974.19;;;6.02;100.00
67457;BME280;54319;52.038;4.640;2023-04-22T02:27:33;100974.53;;;5.99;100.00
67457;BME280;54319;52.038;4.640;2023-04-22T02:30:00;100972.28;;;6.11;100.00
67457;BME280;54319;52.038;4.640;2023-04-22T02:32:28;100954.34;;;6.10;100.00
67457;BME280;54319;52.038;4.640;2023-04-22T02:34:55;100961.94;;;6.14;100.00
67457;BME280;54319;52.038;4.640;2023-04-22T02:37:21;100966.88;;;6.11;100.00
67457;BME280;54319;52.038;4.640;2023-04-22T02:39:48;100965.84;;;6.12;100.00
67457;BME280;54319;52.038;4.640;2023-04-22T02:42:15;100961.16;;;6.05;100.00
67457;BME280;54319;52.038;4.640;2023-04-22T02:44:41;100956.25;;;6.01;100.00
67457;BME280;54319;52.038;4.640;2023-04-22T02:47:08;100947.13;;;5.93;100.00
67457;BME280;54319;52.038;4.640;2023-04-22T02:49:36;100949.19;;;5.91;100.00
67457;BME280;54319;52.038;4.640;2023-04-22T02:52:04;100948.88;;;5.86;100.00
67457;BME280;54319;52.038;4.640;2023-04-22T02:54:30;100931.66;;;5.79;100.00
67457;BME280;54319;52.038;4.640;2023-04-22T02:56:57;100925.75;;;5.75;100.00
67457;BME280;54319;52.038;4.640;2023-04-22T02:59:24;100937.44;;;5.76;100.00
67457;BME280;54319;52.038;4.640;2023-04-22T03:01:51;100928.00;;;5.72;100.00
67457;BME280;54319;52.038;4.640;2023-04-22T03:04:17;100935.41;;;5.78;100.00
67457;BME280;54319;52.038;4.640;2023-04-22T03:06:47;100921.19;;;5.76;100.00
67457;BME280;54319;52.038;4.640;2023-04-22T03:09:14;100893.56;;;5.57;100.00
67457;BME280;54319;52.038;4.640;2023-04-22T03:11:41;100919.16;;;5.78;100.00
67457;BME280;54319;52.038;4.640;2023-04-22T03:14:07;100913.06;;;5.76;100.00
67457;BME280;54319;52.038;4.640;2023-04-22T03:16:35;100925.59;;;5.77;100.00
67457;BME280;54319;52.038;4.640;2023-04-22T03:19:01;100925.75;;;5.75;100.00
67457;BME280;54319;52.038;4.640;2023-04-22T03:21:28;100890.47;;;5.60;100.00
67457;BME280;54319;52.038;4.640;2023-04-22T03:23:57;100912.78;;;5.71;100.00
67457;BME280;54319;52.038;4.640;2023-04-22T03:26:24;100915.81;;;5.68;100.00
67457;BME280;54319;52.038;4.640;2023-04-22T03:28:51;100917.53;;;5.69;100.00
67457;BME280;54319;52.038;4.640;2023-04-22T03:31:17;100911.09;;;5.70;100.00
67457;BME280;54319;52.038;4.640;2023-04-22T03:33:44;100892.47;;;5.67;100.00
67457;BME280;54319;52.038;4.640;2023-04-22T03:36:10;100903.75;;;5.78;100.00
67457;BME280;54319;52.038;4.640;2023-04-22T03:38:37;100895.25;;;5.82;100.00
67457;BME280;54319;52.038;4.640;2023-04-22T03:41:05;100873.66;;;5.73;100.00
67457;BME280;54319;52.038;4.640;2023-04-22T03:43:32;100897.28;;;5.88;100.00
67457;BME280;54319;52.038;4.640;2023-04-22T03:45:58;100904.16;;;5.90;100.00
67457;BME280;54319;52.038;4.640;2023-04-22T03:48:27;100895.56;;;5.87;100.00
67457;BME280;54319;52.038;4.640;2023-04-22T03:50:59;100890.13;;;5.87;100.00
67457;BME280;54319;52.038;4.640;2023-04-22T03:53:25;100886.59;;;5.86;100.00
67457;BME280;54319;52.038;4.640;2023-04-22T03:55:52;100883.91;;;5.86;100.00
67457;BME280;54319;52.038;4.640;2023-04-22T03:58:20;100873.78;;;5.80;100.00
67457;BME280;54319;52.038;4.640;2023-04-22T04:00:47;100869.69;;;5.84;100.00
67457;BME280;54319;52.038;4.640;2023-04-22T04:03:13;100872.53;;;5.91;100.00
67457;BME280;54319;52.038;4.640;2023-04-22T04:05:40;100879.75;;;5.99;100.00
67457;BME280;54319;52.038;4.640;2023-04-22T04:08:06;100866.19;;;5.99;100.00
67457;BME280;54319;52.038;4.640;2023-04-22T04:10:35;100870.25;;;6.03;100.00
67457;BME280;54319;52.038;4.640;2023-04-22T04:13:01;100867.19;;;6.06;100.00
67457;BME280;54319;52.038;4.640;2023-04-22T04:15:30;100844.91;;;5.96;100.00
67457;BME280;54319;52.038;4.640;2023-04-22T04:17:57;100860.56;;;6.08;100.00
67457;BME280;54319;52.038;4.640;2023-04-22T04:20:25;100863.13;;;6.10;100.00
67457;BME280;54319;52.038;4.640;2023-04-22T04:22:52;100867.66;;;6.10;100.00
67457;BME280;54319;52.038;4.640;2023-04-22T04:25:18;100866.00;;;6.08;100.00
67457;BME280;54319;52.038;4.640;2023-04-22T04:27:47;100861.59;;;6.07;100.00
67457;BME280;54319;52.038;4.640;2023-04-22T04:30:14;100857.03;;;6.08;100.00
67457;BME280;54319;52.038;4.640;2023-04-22T04:32:42;100843.84;;;6.05;100.00
67457;BME280;54319;52.038;4.640;2023-04-22T04:35:09;100849.19;;;6.13;100.00
67457;BME280;54319;52.038;4.640;2023-04-22T04:37:38;100841.06;;;6.13;100.00
67457;BME280;54319;52.038;4.640;2023-04-22T04:40:06;100845.75;;;6.19;100.00
67457;BME280;54319;52.038;4.640;2023-04-22T04:42:34;100849.13;;;6.21;100.00
67457;BME280;54319;52.038;4.640;2023-04-22T04:45:01;100854.53;;;6.21;100.00
67457;BME280;54319;52.038;4.640;2023-04-22T04:47:28;100850.81;;;6.22;100.00
67457;BME280;54319;52.038;4.640;2023-04-22T04:49:59;100846.41;;;6.21;100.00
67457;BME280;54319;52.038;4.640;2023-04-22T04:52:28;100848.09;;;6.22;100.00
67457;BME280;54319;52.038;4.640;2023-04-22T04:54:55;100850.06;;;6.29;100.00
67457;BME280;54319;52.038;4.640;2023-04-22T04:57:22;100849.69;;;6.32;100.00
67457;BME280;54319;52.038;4.640;2023-04-22T04:59:49;100853.06;;;6.34;100.00
67457;BME280;54319;52.038;4.640;2023-04-22T05:02:15;100825.78;;;6.20;100.00
67457;BME280;54319;52.038;4.640;2023-04-22T05:04:42;100836.81;;;6.34;100.00
67457;BME280;54319;52.038;4.640;2023-04-22T05:07:10;100830.63;;;6.40;100.00
67457;BME280;54319;52.038;4.640;2023-04-22T05:09:36;100828.97;;;6.39;100.00
67457;BME280;54319;52.038;4.640;2023-04-22T05:12:03;100813.44;;;6.33;100.00
67457;BME280;54319;52.038;4.640;2023-04-22T05:14:30;100838.06;;;6.46;100.00
67457;BME280;54319;52.038;4.640;2023-04-22T05:16:57;100853.94;;;6.49;100.00
67457;BME280;54319;52.038;4.640;2023-04-22T05:19:23;100848.31;;;6.51;100.00
67457;BME280;54319;52.038;4.640;2023-04-22T05:21:51;100839.53;;;6.49;100.00
67457;BME280;54319;52.038;4.640;2023-04-22T05:24:19;100852.53;;;6.54;100.00
67457;BME280;54319;52.038;4.640;2023-04-22T05:26:46;100842.53;;;6.54;100.00
67457;BME280;54319;52.038;4.640;2023-04-22T05:29:12;100857.00;;;6.61;100.00
67457;BME280;54319;52.038;4.640;2023-04-22T05:31:39;100864.59;;;6.66;100.00
67457;BME280;54319;52.038;4.640;2023-04-22T05:34:05;100854.13;;;6.63;100.00
67457;BME280;54319;52.038;4.640;2023-04-22T05:36:32;100836.72;;;6.57;100.00
67457;BME280;54319;52.038;4.640;2023-04-22T05:38:59;100867.50;;;6.79;100.00
67457;BME280;54319;52.038;4.640;2023-04-22T05:41:27;100863.03;;;6.87;100.00
67457;BME280;54319;52.038;4.640;2023-04-22T05:43:53;100852.63;;;6.90;100.00
67457;BME280;54319;52.038;4.640;2023-04-22T05:46:20;100860.88;;;6.97;100.00
67457;BME280;54319;52.038;4.640;2023-04-22T05:48:46;100866.19;;;7.05;100.00
67457;BME280;54319;52.038;4.640;2023-04-22T05:51:14;100866.66;;;7.09;100.00
67457;BME280;54319;52.038;4.640;2023-04-22T05:53:40;100870.47;;;7.15;100.00
67457;BME280;54319;52.038;4.640;2023-04-22T05:56:07;100865.16;;;7.21;100.00
67457;BME280;54319;52.038;4.640;2023-04-22T05:58:35;100874.41;;;7.27;100.00
67457;BME280;54319;52.038;4.640;2023-04-22T06:01:02;100864.66;;;7.33;100.00
67457;BME280;54319;52.038;4.640;2023-04-22T06:03:28;100848.84;;;7.36;100.00
67457;BME280;54319;52.038;4.640;2023-04-22T06:05:55;100848.72;;;7.45;100.00
67457;BME280;54319;52.038;4.640;2023-04-22T06:08:22;100839.53;;;7.46;100.00
67457;BME280;54319;52.038;4.640;2023-04-22T06:10:49;100847.84;;;7.59;100.00
67457;BME280;54319;52.038;4.640;2023-04-22T06:13:16;100846.03;;;7.66;100.00
67457;BME280;54319;52.038;4.640;2023-04-22T06:15:45;100850.31;;;7.76;100.00
67457;BME280;54319;52.038;4.640;2023-04-22T06:18:11;100839.53;;;7.82;100.00
67457;BME280;54319;52.038;4.640;2023-04-22T06:20:38;100836.84;;;7.89;100.00
67457;BME280;54319;52.038;4.640;2023-04-22T06:23:05;100819.91;;;7.87;100.00
67457;BME280;54319;52.038;4.640;2023-04-22T06:25:32;100814.47;;;7.87;100.00
67457;BME280;54319;52.038;4.640;2023-04-22T06:27:58;100838.91;;;8.09;100.00
67457;BME280;54319;52.038;4.640;2023-04-22T06:30:26;100834.31;;;8.09;100.00
67457;BME280;54319;52.038;4.640;2023-04-22T06:32:54;100839.34;;;8.13;100.00
67457;BME280;54319;52.038;4.640;2023-04-22T06:35:21;100843.00;;;8.26;100.00
67457;BME280;54319;52.038;4.640;2023-04-22T06:37:48;100824.28;;;8.38;100.00
67457;BME280;54319;52.038;4.640;2023-04-22T06:40:14;100819.06;;;8.37;100.00
67457;BME280;54319;52.038;4.640;2023-04-22T06:42:41;100823.00;;;8.56;100.00
67457;BME280;54319;52.038;4.640;2023-04-22T06:45:08;100807.44;;;8.50;100.00
67457;BME280;54319;52.038;4.640;2023-04-22T06:47:37;100818.44;;;8.70;100.00
67457;BME280;54319;52.038;4.640;2023-04-22T06:50:06;100820.81;;;8.80;100.00
67457;BME280;54319;52.038;4.640;2023-04-22T06:52:33;100813.13;;;8.90;100.00
67457;BME280;54319;52.038;4.640;2023-04-22T06:55:01;100824.25;;;8.95;100.00
67457;BME280;54319;52.038;4.640;2023-04-22T06:57:28;100823.03;;;9.05;100.00
67457;BME280;54319;52.038;4.640;2023-04-22T06:59:55;100817.63;;;9.18;100.00
67457;BME280;54319;52.038;4.640;2023-04-22T07:02:21;100796.94;;;9.24;100.00
67457;BME280;54319;52.038;4.640;2023-04-22T07:04:48;100806.63;;;9.40;100.00
67457;BME280;54319;52.038;4.640;2023-04-22T07:07:16;100805.19;;;9.51;100.00
67457;BME280;54319;52.038;4.640;2023-04-22T07:09:43;100812.09;;;9.60;100.00
67457;BME280;54319;52.038;4.640;2023-04-22T07:12:10;100821.97;;;9.68;100.00
67457;BME280;54319;52.038;4.640;2023-04-22T07:14:36;100820.50;;;9.79;100.00
67457;BME280;54319;52.038;4.640;2023-04-22T07:17:03;100811.91;;;9.82;100.00
67457;BME280;54319;52.038;4.640;2023-04-22T07:19:30;100808.16;;;9.90;100.00
67457;BME280;54319;52.038;4.640;2023-04-22T07:21:56;100811.91;;;10.02;100.00
67457;BME280;54319;52.038;4.640;2023-04-22T07:24:24;100807.97;;;10.11;99.77
67457;BME280;54319;52.038;4.640;2023-04-22T07:26:51;100820.09;;;10.22;98.93
67457;BME280;54319;52.038;4.640;2023-04-22T07:29:17;100818.00;;;10.51;97.74
67457;BME280;54319;52.038;4.640;2023-04-22T07:31:44;100813.38;;;10.59;95.68
67457;BME280;54319;52.038;4.640;2023-04-22T07:34:12;100802.25;;;10.67;95.18
67457;BME280;54319;52.038;4.640;2023-04-22T07:36:39;100822.09;;;10.94;97.05
67457;BME280;54319;52.038;4.640;2023-04-22T07:39:06;100834.72;;;10.89;92.60
67457;BME280;54319;52.038;4.640;2023-04-22T07:41:35;100832.13;;;11.07;91.72
67457;BME280;54319;52.038;4.640;2023-04-22T07:44:01;100817.72;;;11.32;93.11
67457;BME280;54319;52.038;4.640;2023-04-22T07:46:28;100823.78;;;11.80;91.10
67457;BME280;54319;52.038;4.640;2023-04-22T07:48:55;100832.19;;;12.36;89.43
67457;BME280;54319;52.038;4.640;2023-04-22T07:51:21;100833.31;;;12.72;85.24
67457;BME280;54319;52.038;4.640;2023-04-22T07:53:50;100815.94;;;13.34;84.94
67457;BME280;54319;52.038;4.640;2023-04-22T07:56:16;100816.94;;;13.70;78.38
67457;BME280;54319;52.038;4.640;2023-04-22T07:58:44;100818.31;;;14.15;75.30
67457;BME280;54319;52.038;4.640;2023-04-22T08:01:11;100809.88;;;14.41;76.74
67457;BME280;54319;52.038;4.640;2023-04-22T08:03:37;100805.13;;;15.13;73.91
67457;BME280;54319;52.038;4.640;2023-04-22T08:06:04;100804.59;;;15.57;72.06
67457;BME280;54319;52.038;4.640;2023-04-22T08:08:31;100801.13;;;15.78;69.86
67457;BME280;54319;52.038;4.640;2023-04-22T08:10:58;100765.72;;;16.33;67.90
67457;BME280;54319;52.038;4.640;2023-04-22T08:13:24;100771.38;;;16.88;67.33
67457;BME280;54319;52.038;4.640;2023-04-22T08:15:52;100770.34;;;16.95;62.39
67457;BME280;54319;52.038;4.640;2023-04-22T08:18:19;100784.69;;;16.52;65.57
67457;BME280;54319;52.038;4.640;2023-04-22T08:20:46;100793.03;;;16.79;65.87
67457;BME280;54319;52.038;4.640;2023-04-22T08:23:13;100797.75;;;16.23;67.02
67457;BME280;54319;52.038;4.640;2023-04-22T08:25:39;100792.69;;;15.68;66.63
67457;BME280;54319;52.038;4.640;2023-04-22T08:28:06;100800.84;;;15.63;68.73
67457;BME280;54319;52.038;4.640;2023-04-22T08:30:33;100802.34;;;15.54;66.24
67457;BME280;54319;52.038;4.640;2023-04-22T08:33:01;100803.78;;;14.74;69.47
67457;BME280;54319;52.038;4.640;2023-04-22T08:35:29;100783.97;;;14.48;73.94
67457;BME280;54319;52.038;4.640;2023-04-22T08:37:55;100790.88;;;14.51;74.49
67457;BME280;54319;52.038;4.640;2023-04-22T08:40:22;100791.00;;;14.44;72.58
67457;BME280;54319;52.038;4.640;2023-04-22T08:42:49;100785.50;;;14.68;72.30
67457;BME280;54319;52.038;4.640;2023-04-22T08:45:17;100781.09;;;14.67;72.34
67457;BME280;54319;52.038;4.640;2023-04-22T08:47:44;100777.28;;;14.56;71.78
67457;BME280;54319;52.038;4.640;2023-04-22T08:50:12;100753.44;;;14.21;72.58
67457;BME280;54319;52.038;4.640;2023-04-22T08:52:40;100778.72;;;14.23;73.93
67457;BME280;54319;52.038;4.640;2023-04-22T08:55:07;100773.25;;;14.35;75.14
67457;BME280;54319;52.038;4.640;2023-04-22T08:57:35;100779.91;;;14.51;74.48
67457;BME280;54319;52.038;4.640;2023-04-22T09:00:02;100756.75;;;14.71;73.51
67457;BME280;54319;52.038;4.640;2023-04-22T09:02:31;100733.06;;;14.70;72.82
67457;BME280;54319;52.038;4.640;2023-04-22T09:05:00;100749.53;;;14.94;70.32
67457;BME280;54319;52.038;4.640;2023-04-22T09:07:29;100740.09;;;14.89;70.07
67457;BME280;54319;52.038;4.640;2023-04-22T09:09:57;100741.44;;;14.75;70.99
67457;BME280;54319;52.038;4.640;2023-04-22T09:12:24;100741.00;;;14.78;71.48
67457;BME280;54319;52.038;4.640;2023-04-22T09:14:51;100733.69;;;14.72;70.43
67457;BME280;54319;52.038;4.640;2023-04-22T09:17:29;100724.53;;;14.54;71.06
67457;BME280;54319;52.038;4.640;2023-04-22T09:19:57;100721.19;;;14.52;72.91
67457;BME280;54319;52.038;4.640;2023-04-22T09:22:25;100705.53;;;14.53;72.82
67457;BME280;54319;52.038;4.640;2023-04-22T09:24:53;100714.25;;;14.61;72.03
67457;BME280;54319;52.038;4.640;2023-04-22T09:27:23;100694.94;;;14.56;72.69
67457;BME280;54319;52.038;4.640;2023-04-22T09:29:51;100695.41;;;14.53;74.50
67457;BME280;54319;52.038;4.640;2023-04-22T09:32:18;100700.31;;;14.51;73.18
67457;BME280;54319;52.038;4.640;2023-04-22T09:34:48;100709.63;;;14.50;75.96
67457;BME280;54319;52.038;4.640;2023-04-22T09:37:18;100716.91;;;14.44;73.34
67457;BME280;54319;52.038;4.640;2023-04-22T09:39:47;100735.41;;;14.25;73.97
67457;BME280;54319;52.038;4.640;2023-04-22T09:42:15;100725.50;;;14.00;76.47
67457;BME280;54319;52.038;4.640;2023-04-22T09:44:43;100736.75;;;14.11;77.08
67457;BME280;54319;52.038;4.640;2023-04-22T09:47:10;100748.16;;;14.31;78.43
67457;BME280;54319;52.038;4.640;2023-04-22T09:49:37;100750.56;;;14.28;74.96
67457;BME280;54319;52.038;4.640;2023-04-22T09:52:05;100749.13;;;14.49;74.54
67457;BME280;54319;52.038;4.640;2023-04-22T09:54:32;100746.38;;;14.61;72.98
67457;BME280;54319;52.038;4.640;2023-04-22T09:56:59;100763.53;;;14.68;74.13
67457;BME280;54319;52.038;4.640;2023-04-22T09:59:28;100763.91;;;14.72;73.12
67457;BME280;54319;52.038;4.640;2023-04-22T10:01:58;100770.81;;;14.62;75.20
67457;BME280;54319;52.038;4.640;2023-04-22T10:04:25;100764.16;;;14.70;77.89
67457;BME280;54319;52.038;4.640;2023-04-22T10:06:53;100774.28;;;14.82;75.65
67457;BME280;54319;52.038;4.640;2023-04-22T10:09:22;100764.53;;;15.03;72.50
67457;BME280;54319;52.038;4.640;2023-04-22T10:11:51;100757.97;;;15.04;72.30
67457;BME280;54319;52.038;4.640;2023-04-22T10:14:20;100757.47;;;15.36;70.73
67457;BME280;54319;52.038;4.640;2023-04-22T10:16:51;100742.66;;;15.37;70.65
67457;BME280;54319;52.038;4.640;2023-04-22T10:19:20;100752.56;;;15.38;71.67
67457;BME280;54319;52.038;4.640;2023-04-22T10:21:49;100750.31;;;15.35;70.68
67457;BME280;54319;52.038;4.640;2023-04-22T10:24:19;100764.38;;;15.22;72.50
67457;BME280;54319;52.038;4.640;2023-04-22T10:26:50;100739.94;;;14.96;71.35
67457;BME280;54319;52.038;4.640;2023-04-22T10:29:20;100756.22;;;14.86;70.51
67457;BME280;54319;52.038;4.640;2023-04-22T10:31:53;100757.91;;;14.75;71.88
67457;BME280;54319;52.038;4.640;2023-04-22T10:34:21;100778.72;;;14.59;72.79
67457;BME280;54319;52.038;4.640;2023-04-22T10:36:56;100776.69;;;14.42;71.89
67457;BME280;54319;52.038;4.640;2023-04-22T10:39:23;100785.03;;;14.36;72.62
67457;BME280;54319;52.038;4.640;2023-04-22T10:41:52;100783.50;;;14.16;73.31
67457;BME280;54319;52.038;4.640;2023-04-22T10:44:20;100764.50;;;13.79;73.80
67457;BME280;54319;52.038;4.640;2023-04-22T10:47:01;100775.00;;;13.82;75.10
67457;BME280;54319;52.038;4.640;2023-04-22T10:49:31;100776.28;;;13.67;74.75
67457;BME280;54319;52.038;4.640;2023-04-22T10:51:59;100779.84;;;13.68;74.43
67457;BME280;54319;52.038;4.640;2023-04-22T10:54:56;100771.88;;;13.66;74.73
67457;BME280;54319;52.038;4.640;2023-04-22T10:57:29;100776.50;;;13.66;75.19
67457;BME280;54319;52.038;4.640;2023-04-22T11:00:02;100768.97;;;13.61;73.65
67457;BME280;54319;52.038;4.640;2023-04-22T11:02:44;100769.56;;;13.63;73.62
67457;BME280;54319;52.038;4.640;2023-04-22T11:05:23;100767.78;;;13.57;74.20
67457;BME280;54319;52.038;4.640;2023-04-22T11:07:52;100735.16;;;13.37;76.90
67457;BME280;54319;52.038;4.640;2023-04-22T11:10:35;100755.47;;;13.48;78.47
67457;BME280;54319;52.038;4.640;2023-04-22T11:13:05;100739.22;;;13.34;78.80
67457;BME280;54319;52.038;4.640;2023-04-22T11:15:33;100756.34;;;13.29;80.44
67457;BME280;54319;52.038;4.640;2023-04-22T11:18:02;100773.16;;;13.33;80.44
67457;BME280;54319;52.038;4.640;2023-04-22T11:20:33;100785.50;;;13.24;80.28
67457;BME280;54319;52.038;4.640;2023-04-22T11:23:01;100796.91;;;13.21;81.66
67457;BME280;54319;52.038;4.640;2023-04-22T11:25:28;100781.72;;;13.06;80.17
67457;BME280;54319;52.038;4.640;2023-04-22T11:27:55;100784.16;;;13.14;80.80
67457;BME280;54319;52.038;4.640;2023-04-22T11:30:23;100776.44;;;12.93;82.80
67457;BME280;54319;52.038;4.640;2023-04-22T11:32:52;100816.56;;;12.80;85.55
67457;BME280;54319;52.038;4.640;2023-04-22T11:35:22;100821.28;;;12.54;86.45
67457;BME280;54319;52.038;4.640;2023-04-22T11:37:50;100795.19;;;12.33;86.52
67457;BME280;54319;52.038;4.640;2023-04-22T11:40:20;100811.41;;;12.53;85.18
67457;BME280;54319;52.038;4.640;2023-04-22T11:42:47;100801.72;;;12.32;86.84
67457;BME280;54319;52.038;4.640;2023-04-22T11:45:14;100798.28;;;12.18;88.20
67457;BME280;54319;52.038;4.640;2023-04-22T11:47:42;100788.66;;;12.09;89.01
67457;BME280;54319;52.038;4.640;2023-04-22T11:50:11;100771.69;;;12.00;89.63
67457;BME280;54319;52.038;4.640;2023-04-22T11:52:44;100771.59;;;11.81;90.93
67457;BME280;54319;52.038;4.640;2023-04-22T11:55:12;100791.31;;;11.90;90.97
67457;BME280;54319;52.038;4.640;2023-04-22T11:57:39;100792.06;;;12.04;90.48
67457;BME280;54319;52.038;4.640;2023-04-22T12:00:08;100787.50;;;11.91;91.45
67457;BME280;54319;52.038;4.640;2023-04-22T12:02:36;100780.72;;;11.68;91.08
67457;BME280;54319;52.038;4.640;2023-04-22T12:05:03;100791.63;;;11.43;89.91
67457;BME280;54319;52.038;4.640;2023-04-22T12:07:30;100820.25;;;11.34;91.77
67457;BME280;54319;52.038;4.640;2023-04-22T12:09:59;100820.91;;;11.29;90.83
67457;BME280;54319;52.038;4.640;2023-04-22T12:12:28;100795.34;;;11.17;91.37
67457;BME280;54319;52.038;4.640;2023-04-22T12:14:54;100748.84;;;10.91;91.99
67457;BME280;54319;52.038;4.640;2023-04-22T12:17:23;100746.94;;;10.92;93.71
67457;BME280;54319;52.038;4.640;2023-04-22T12:19:52;100747.44;;;10.82;95.06
67457;BME280;54319;52.038;4.640;2023-04-22T12:22:25;100738.81;;;10.85;95.46
67457;BME280;54319;52.038;4.640;2023-04-22T12:24:52;100730.19;;;10.81;95.19
67457;BME280;54319;52.038;4.640;2023-04-22T12:27:20;100735.53;;;10.63;94.25
67457;BME280;54319;52.038;4.640;2023-04-22T12:29:51;100767.59;;;10.81;95.96
67457;BME280;54319;52.038;4.640;2023-04-22T12:32:18;100785.63;;;10.75;95.67
67457;BME280;54319;52.038;4.640;2023-04-22T12:34:46;100779.75;;;10.78;94.92
67457;BME280;54319;52.038;4.640;2023-04-22T12:37:13;100777.47;;;10.75;94.81
67457;BME280;54319;52.038;4.640;2023-04-22T12:39:41;100775.78;;;10.67;95.43
67457;BME280;54319;52.038;4.640;2023-04-22T12:42:08;100776.84;;;10.73;95.50
67457;BME280;54319;52.038;4.640;2023-04-22T12:44:36;100777.00;;;10.85;95.76
67457;BME280;54319;52.038;4.640;2023-04-22T12:47:03;100771.50;;;10.92;95.70
67457;BME280;54319;52.038;4.640;2023-04-22T12:49:29;100777.53;;;11.07;95.19
67457;BME280;54319;52.038;4.640;2023-04-22T12:51:56;100773.75;;;11.08;94.39